Time;durP1;ratioP1;P1;durP2;ratioP2;P2;SDS_P1;SDS_P2;PMS_P1;PMS_P2;Temp;Humidity;BMP_temperature;BMP_pressure;BME280_temperature;BME280_humidity;BME280_pressure;Samples;Min_cycle;Max_cycle;Signal;HPM_P1;HPM_P2
2022/11/26 00:01:16;;;;;;;43.92;25.17;;;;;;;0.72;96.20;100218.41;1736571;81;20970;-79
2022/11/26 00:03:45;;;;;;;39.98;23.70;;;;;;;0.73;96.35;100218.82;1782739;79;21780;-79
2022/11/26 00:06:26;;;;;;;42.27;25.17;;;;;;;0.75;96.31;100219.69;1790045;79;20922;-79
2022/11/26 00:08:53;;;;;;;45.95;26.30;;;;;;;0.76;96.34;100222.70;1774549;78;20982;-79
2022/11/26 00:11:19;;;;;;;46.77;25.65;;;;;;;0.79;96.38;100223.55;1783093;79;20910;-79
2022/11/26 00:13:47;;;;;;;38.03;24.53;;;;;;;0.83;96.36;100225.69;1785123;79;21679;-79
2022/11/26 00:16:14;;;;;;;48.68;26.45;;;;;;;0.86;95.85;100226.54;1789542;78;21558;-79
2022/11/26 00:18:41;;;;;;;43.08;26.27;;;;;;;0.86;95.63;100229.55;1765926;80;20859;-79
2022/11/26 00:21:24;;;;;;;46.05;26.70;;;;;;;0.84;95.64;100230.84;1779774;79;20902;-79
2022/11/26 00:23:53;;;;;;;43.92;26.00;;;;;;;0.80;96.06;100230.83;1791129;78;20906;-79
2022/11/26 00:26:22;;;;;;;41.50;25.27;;;;;;;0.82;96.71;100229.12;1793384;79;20913;-79
2022/11/26 00:29:01;;;;;;;42.58;25.92;;;;;;;0.86;96.76;100230.83;1789195;79;22100;-78
2022/11/26 00:31:28;;;;;;;40.50;24.63;;;;;;;0.88;96.88;100234.27;1776298;79;20937;-78
2022/11/26 00:33:55;;;;;;;40.17;25.43;;;;;;;0.92;96.90;100235.97;1768970;79;20960;-78
2022/11/26 00:36:31;;;;;;;38.23;24.57;;;;;;;0.97;96.83;100234.27;1789615;79;20982;-78
2022/11/26 00:39:12;;;;;;;35.63;23.07;;;;;;;0.96;96.69;100237.70;1786977;79;20969;-79
2022/11/26 00:41:39;;;;;;;40.35;23.98;;;;;;;0.98;96.81;100245.00;1754362;79;21091;-79
2022/11/26 00:44:21;;;;;;;39.08;25.48;;;;;;;0.99;96.73;100245.41;1782899;79;21426;-79
2022/11/26 00:46:49;;;;;;;37.33;24.07;;;;;;;1.00;96.71;100243.69;1774422;78;21479;-78
2022/11/26 00:49:17;;;;;;;38.83;24.65;;;;;;;1.00;96.69;100241.97;1785346;79;20902;-78
2022/11/26 00:51:45;;;;;;;40.48;26.00;;;;;;;1.02;96.42;100244.13;1794490;79;20914;-78
2022/11/26 00:54:16;;;;;;;39.48;24.50;;;;;;;1.01;96.49;100243.70;1781309;79;21066;-79
2022/11/26 00:56:42;;;;;;;41.50;23.77;;;;;;;1.01;96.53;100241.13;1772795;79;21127;-79
2022/11/26 00:59:13;;;;;;;37.20;22.43;;;;;;;1.00;96.45;100237.27;1792390;79;20898;-79
2022/11/26 01:01:40;;;;;;;37.95;24.98;;;;;;;0.97;96.36;100240.69;1778436;79;20875;-79
2022/11/26 01:04:07;;;;;;;37.45;25.75;;;;;;;0.95;96.42;100243.68;1763110;79;20984;-78
2022/11/26 01:06:38;;;;;;;40.20;24.33;;;;;;;0.98;96.88;100242.42;1776611;79;21264;-79
2022/11/26 01:09:06;;;;;;;41.10;23.75;;;;;;;0.99;96.76;100235.12;1771474;79;20978;-79
2022/11/26 01:11:33;;;;;;;37.48;23.87;;;;;;;0.98;96.53;100238.56;1772859;81;21017;-79
2022/11/26 01:14:00;;;;;;;42.80;23.35;;;;;;;0.97;96.25;100244.55;1792628;78;20937;-78
2022/11/26 01:16:34;;;;;;;36.75;23.50;;;;;;;0.93;96.11;100242.84;1809689;78;20957;-79
2022/11/26 01:19:02;;;;;;;38.13;23.55;;;;;;;0.92;96.07;100250.11;1788367;79;21068;-78
2022/11/26 01:21:30;;;;;;;44.53;24.45;;;;;;;0.93;96.33;100255.70;1764536;79;20909;-79
2022/11/26 01:23:57;;;;;;;33.88;22.70;;;;;;;0.92;96.36;100253.97;1796242;78;20886;-78
2022/11/26 01:26:27;;;;;;;34.47;22.20;;;;;;;0.96;96.35;100253.13;1798575;79;20884;-79
2022/11/26 01:28:54;;;;;;;35.40;22.15;;;;;;;0.98;96.41;100256.56;1748538;79;20965;-78
2022/11/26 01:31:26;;;;;;;36.15;22.98;;;;;;;1.00;96.57;100259.12;1762161;81;21887;-79
2022/11/26 01:33:53;;;;;;;37.33;22.60;;;;;;;1.02;96.64;100255.70;1779148;79;20930;-78
2022/11/26 01:36:36;;;;;;;35.60;22.85;;;;;;;1.04;96.61;100259.56;1762478;80;20878;-78
2022/11/26 01:39:08;;;;;;;37.63;22.42;;;;;;;1.03;96.61;100258.69;1750118;79;20934;-78
2022/11/26 01:42:13;;;;;;;36.15;21.85;;;;;;;1.03;96.50;100256.55;1795724;79;20874;-78
2022/11/26 01:44:40;;;;;;;39.67;22.55;;;;;;;1.03;96.57;100259.97;1773462;79;21074;-78
2022/11/26 01:47:29;;;;;;;34.00;22.67;;;;;;;1.03;96.72;100257.40;1783682;78;21439;-78
2022/11/26 01:50:35;;;;;;;38.98;23.20;;;;;;;1.10;96.89;100263.42;1756844;80;20906;-78
2022/11/26 01:53:16;;;;;;;37.20;23.20;;;;;;;1.17;96.82;100265.11;1793235;78;20905;-78
2022/11/26 01:55:54;;;;;;;39.65;23.77;;;;;;;1.22;96.71;100268.55;1766691;78;21451;-78
2022/11/26 01:58:26;;;;;;;38.92;24.55;;;;;;;1.09;96.03;100271.56;1745274;81;21040;-78
2022/11/26 02:00:53;;;;;;;38.13;22.58;;;;;;;1.03;96.17;100276.69;1794585;79;20890;-78
2022/11/26 02:03:20;;;;;;;33.70;22.03;;;;;;;1.02;96.21;100273.70;1795013;79;20870;-78
2022/11/26 02:05:57;;;;;;;36.90;23.83;;;;;;;1.01;96.28;100270.70;1795565;78;21110;-79
2022/11/26 02:08:27;;;;;;;35.28;22.05;;;;;;;1.05;96.57;100272.84;1787338;78;21483;-79
2022/11/26 02:10:54;;;;;;;34.90;22.55;;;;;;;1.07;96.53;100265.56;1772178;79;21069;-79
2022/11/26 02:13:22;;;;;;;34.53;22.07;;;;;;;1.05;96.40;100268.55;1759818;79;20957;-79
2022/11/26 02:15:55;;;;;;;;;;;;;;;1.04;96.38;100271.99;1800104;79;20890;-79
2022/11/26 02:18:24;;;;;;;37.88;21.85;;;;;;;1.05;96.36;100267.70;1794696;79;20143;-79
2022/11/26 02:21:05;;;;;;;35.13;21.17;;;;;;;1.00;96.18;100275.41;1794728;78;20926;-78
2022/11/26 02:23:58;;;;;;;31.60;20.32;;;;;;;0.99;96.20;100271.13;1787346;79;21101;-79
2022/11/26 02:27:01;;;;;;;35.23;21.30;;;;;;;0.98;96.25;100274.56;1785419;79;20875;-78
2022/11/26 02:30:05;;;;;;;29.85;20.15;;;;;;;1.00;96.41;100278.41;1764885;79;21578;-78
2022/11/26 02:32:40;;;;;;;31.20;20.55;;;;;;;0.98;96.25;100279.70;1788957;79;20918;-78
2022/11/26 02:35:18;;;;;;;30.62;20.12;;;;;;;0.98;96.48;100272.00;1785524;79;20941;-78
2022/11/26 02:37:52;;;;;;;32.45;20.77;;;;;;;0.96;96.35;100276.27;1771863;79;21050;-78
2022/11/26 02:40:20;;;;;;;30.23;19.67;;;;;;;0.96;96.29;100283.98;1785595;79;20934;-78
2022/11/26 02:42:47;;;;;;;29.37;20.95;;;;;;;0.95;96.35;100279.67;1770555;80;21472;-78
2022/11/26 02:45:18;;;;;;;32.48;22.20;;;;;;;0.96;96.34;100275.42;1790556;80;21424;-78
2022/11/26 02:47:49;;;;;;;31.10;20.32;;;;;;;0.96;96.29;100283.13;1755677;80;20934;-78
2022/11/26 02:50:36;;;;;;;26.90;20.43;;;;;;;0.96;96.32;100277.55;1780450;78;21130;-79
2022/11/26 02:53:04;;;;;;;30.77;19.85;;;;;;;0.95;96.26;100273.25;1779216;79;20934;-78
2022/11/26 02:55:35;;;;;;;31.62;20.45;;;;;;;0.95;96.26;100278.83;1752682;80;20887;-78
2022/11/26 02:58:02;;;;;;;31.80;21.30;;;;;;;0.94;96.19;100280.55;1760672;81;20969;-78
2022/11/26 03:00:31;;;;;;;33.18;22.07;;;;;;;0.93;96.25;100283.98;1768971;80;21392;-78
2022/11/26 03:03:03;;;;;;;31.70;20.45;;;;;;;0.95;96.36;100292.53;1746367;81;21038;-78
2022/11/26 03:05:36;;;;;;;32.08;22.35;;;;;;;0.96;96.36;100286.55;1782908;80;21436;-78
2022/11/26 03:08:04;;;;;;;26.77;19.48;;;;;;;0.96;96.40;100294.70;1757968;80;21524;-79
2022/11/26 03:10:32;;;;;;;29.70;19.42;;;;;;;0.97;96.42;100301.12;1777199;78;20914;-78
2022/11/26 03:12:59;;;;;;;33.35;21.50;;;;;;;0.95;96.37;100297.67;1761698;81;20946;-79
2022/11/26 03:15:27;;;;;;;33.70;21.82;;;;;;;0.96;96.51;100295.55;1790327;80;21200;-79
2022/11/26 03:17:53;;;;;;;30.23;20.10;;;;;;;0.93;96.24;100305.84;1709131;81;20985;-79
2022/11/26 03:20:20;;;;;;;33.05;21.60;;;;;;;0.90;96.13;100309.70;1801922;78;20895;-78
2022/11/26 03:22:47;;;;;;;29.48;20.65;;;;;;;0.89;96.30;100310.53;1751666;80;21459;-78
2022/11/26 03:25:14;;;;;;;30.35;20.55;;;;;;;0.93;96.49;100317.41;1763781;80;20952;-79
2022/11/26 03:27:40;;;;;;;30.57;20.43;;;;;;;0.97;96.53;100316.55;1746132;80;21044;-79
2022/11/26 03:30:08;;;;;;;33.20;21.40;;;;;;;0.97;96.52;100316.55;1765228;78;20874;-78
2022/11/26 03:32:35;;;;;;;33.90;21.62;;;;;;;0.99;96.57;100322.99;1740157;80;21437;-78
2022/11/26 03:35:02;;;;;;;32.73;21.45;;;;;;;0.94;96.29;100321.69;1776573;80;20906;-79
2022/11/26 03:37:29;;;;;;;31.50;21.10;;;;;;;0.80;96.11;100297.67;1786545;79;21010;-78
2022/11/26 03:39:56;;;;;;;33.07;22.67;;;;;;;0.79;96.16;100319.11;1757540;81;22119;-79
2022/11/26 03:42:22;;;;;;;30.55;23.73;;;;;;;0.80;96.52;100323.38;1766649;80;20918;-79
2022/11/26 03:44:49;;;;;;;30.60;22.90;;;;;;;0.79;96.71;100319.95;1739830;81;20930;-79
2022/11/26 03:47:16;;;;;;;32.63;21.42;;;;;;;0.81;96.79;100325.08;1765422;79;21767;-78
2022/11/26 03:49:42;;;;;;;34.33;23.43;;;;;;;0.83;96.48;100323.38;1781067;79;20978;-78
2022/11/26 03:52:09;;;;;;;35.88;23.18;;;;;;;0.82;96.36;100329.39;1778580;79;21043;-78
2022/11/26 03:54:35;;;;;;;37.25;24.23;;;;;;;0.72;96.72;100325.07;1736991;81;20867;-79
2022/11/26 03:57:02;;;;;;;33.95;22.77;;;;;;;0.91;96.26;100321.69;1763214;80;20938;-78
2022/11/26 03:59:29;;;;;;;31.33;20.72;;;;;;;0.89;95.94;100321.67;1765308;80;21025;-78
2022/11/26 04:01:55;;;;;;;31.42;20.97;;;;;;;0.75;96.33;100337.92;1755452;81;20871;-78
2022/11/26 04:04:22;;;;;;;32.70;21.67;;;;;;;0.77;96.12;100323.38;1766862;80;21882;-78
2022/11/26 04:06:49;;;;;;;29.83;20.47;;;;;;;0.65;96.30;100325.06;1788267;79;20942;-79
2022/11/26 04:09:15;;;;;;;30.00;21.90;;;;;;;0.63;96.52;100324.19;1790308;79;20946;-79
2022/11/26 04:11:42;;;;;;;30.60;21.10;;;;;;;0.66;96.65;100326.77;1794881;79;20931;-79
2022/11/26 04:14:08;;;;;;;29.87;21.33;;;;;;;0.69;96.67;100325.06;1780886;79;20966;-78
2022/11/26 04:16:35;;;;;;;29.67;20.23;;;;;;;0.68;96.69;100331.92;1754132;81;21070;-78
2022/11/26 04:19:02;;;;;;;33.13;20.05;;;;;;;0.66;96.56;100331.91;1771190;80;20887;-78
2022/11/26 04:21:29;;;;;;;31.48;19.62;;;;;;;0.64;96.55;100334.92;1753682;81;20905;-79
2022/11/26 04:23:55;;;;;;;30.43;19.57;;;;;;;0.65;96.25;100332.77;1763192;80;20962;-79
2022/11/26 04:26:22;;;;;;;30.32;19.62;;;;;;;0.65;96.64;100337.91;1778602;80;21471;-78
2022/11/26 04:28:49;;;;;;;27.77;19.47;;;;;;;0.68;96.57;100341.35;1774241;80;21527;-78
2022/11/26 04:31:16;;;;;;;28.57;18.95;;;;;;;0.70;96.64;100348.62;1739813;81;20914;-78
2022/11/26 04:33:43;;;;;;;31.45;18.62;;;;;;;0.71;96.73;100351.20;1759668;79;21131;-78
2022/11/26 04:36:10;;;;;;;28.17;19.27;;;;;;;0.76;96.66;100349.95;1749632;81;20950;-78
2022/11/26 04:38:37;;;;;;;28.62;18.92;;;;;;;0.76;96.77;100352.52;1797916;79;21128;-79
2022/11/26 04:41:04;;;;;;;31.05;19.80;;;;;;;0.80;97.01;100358.08;1763797;78;21097;-79
2022/11/26 04:43:30;;;;;;;30.10;19.37;;;;;;;0.84;96.96;100358.50;1775442;78;21021;-79
2022/11/26 04:45:57;;;;;;;28.05;19.05;;;;;;;0.83;96.79;100356.80;1774449;78;21023;-78
2022/11/26 04:48:24;;;;;;;29.00;19.00;;;;;;;0.82;96.74;100355.09;1769382;78;20910;-78
2022/11/26 04:50:50;;;;;;;26.95;18.05;;;;;;;0.78;96.73;100350.78;1753500;81;21853;-78
2022/11/26 04:53:20;;;;;;;24.00;18.10;;;;;;;0.83;96.79;100361.94;1777492;79;21062;-79
2022/11/26 04:55:48;;;;;;;29.32;19.12;;;;;;;0.84;96.75;100364.94;1748988;81;20970;-78
2022/11/26 04:58:16;;;;;;;28.30;19.07;;;;;;;0.85;96.66;100364.10;1728409;81;20914;-78
2022/11/26 05:00:43;;;;;;;27.67;18.90;;;;;;;0.86;96.70;100367.09;1782875;78;21423;-78
2022/11/26 05:03:10;;;;;;;27.93;18.07;;;;;;;0.88;96.82;100370.53;1785912;78;20962;-78
2022/11/26 05:05:37;;;;;;;28.45;19.32;;;;;;;1.01;96.52;100368.42;1780383;79;21796;-78
2022/11/26 05:08:03;;;;;;;25.33;18.37;;;;;;;1.05;96.33;100373.99;1785161;79;20950;-78
2022/11/26 05:10:30;;;;;;;26.33;19.47;;;;;;;1.10;96.06;100372.73;1779053;79;20937;-78
2022/11/26 05:12:57;;;;;;;28.35;17.98;;;;;;;1.06;96.06;100383.41;1788121;78;20898;-78
2022/11/26 05:15:23;;;;;;;27.30;18.50;;;;;;;1.08;96.07;100381.71;1793524;79;20917;-78
2022/11/26 05:17:50;;;;;;;26.40;18.27;;;;;;;1.14;96.01;100382.58;1795208;79;20980;-78
2022/11/26 05:20:17;;;;;;;27.00;18.17;;;;;;;1.19;96.19;100380.45;1807864;78;21491;-78
2022/11/26 05:22:43;;;;;;;25.88;19.07;;;;;;;1.09;96.75;100380.88;1805507;79;20891;-78
2022/11/26 05:25:10;;;;;;;25.52;18.42;;;;;;;1.13;96.71;100386.88;1799044;78;20965;-78
2022/11/26 05:27:37;;;;;;;27.58;18.80;;;;;;;1.10;96.83;100383.02;1763001;79;20910;-78
2022/11/26 05:30:06;;;;;;;29.20;18.73;;;;;;;1.10;96.78;100389.44;1786701;79;21873;-78
2022/11/26 05:32:32;;;;;;;27.45;18.73;;;;;;;1.09;96.82;100392.45;1788892;79;21531;-78
2022/11/26 05:34:59;;;;;;;32.03;19.42;;;;;;;1.08;96.88;100394.57;1781033;79;20931;-78
2022/11/26 05:37:26;;;;;;;29.85;19.42;;;;;;;1.08;96.83;100399.72;1786071;78;20880;-78
2022/11/26 05:39:53;;;;;;;28.60;18.83;;;;;;;1.08;96.94;100403.58;1756793;80;20996;-78
2022/11/26 05:42:19;;;;;;;26.37;18.80;;;;;;;1.09;96.97;100406.59;1763535;80;21102;-78
2022/11/26 05:44:46;;;;;;;28.38;19.42;;;;;;;1.23;96.62;100410.89;1767608;80;20923;-78
2022/11/26 05:47:12;;;;;;;25.32;18.12;;;;;;;1.17;96.63;100405.73;1770660;80;21013;-77
2022/11/26 05:49:39;;;;;;;30.20;20.62;;;;;;;1.19;96.50;100410.47;1759564;79;21457;-78
2022/11/26 05:52:06;;;;;;;24.82;16.93;;;;;;;1.20;96.56;100408.31;1767814;80;20974;-78
2022/11/26 05:54:32;;;;;;;26.12;18.90;;;;;;;1.24;96.50;100415.20;1742238;81;21861;-78
2022/11/26 05:56:59;;;;;;;27.55;18.30;;;;;;;1.26;96.36;100421.18;1758575;79;20916;-78
2022/11/26 05:59:26;;;;;;;28.27;19.15;;;;;;;1.25;96.49;100418.19;1762406;80;21529;-78
2022/11/26 06:01:53;;;;;;;30.23;20.45;;;;;;;1.28;96.49;100422.05;1784236;79;20977;-78
2022/11/26 06:04:19;;;;;;;26.12;18.02;;;;;;;1.30;96.51;100421.62;1749133;81;20902;-78
2022/11/26 06:06:46;;;;;;;26.35;17.42;;;;;;;1.27;96.52;100425.05;1781639;78;21050;-78
2022/11/26 06:09:12;;;;;;;26.82;18.52;;;;;;;1.30;96.51;100428.06;1773244;80;20969;-78
2022/11/26 06:11:39;;;;;;;28.20;18.62;;;;;;;1.30;96.37;100425.48;1785663;80;20939;-78
2022/11/26 06:14:06;;;;;;;27.98;17.48;;;;;;;1.36;96.52;100428.06;1772190;78;20856;-78
2022/11/26 06:16:32;;;;;;;26.07;17.23;;;;;;;1.44;96.24;100430.66;1782216;78;20903;-78
2022/11/26 06:18:59;;;;;;;25.93;18.10;;;;;;;1.48;96.02;100429.79;1782099;80;21044;-78
2022/11/26 06:21:25;;;;;;;24.85;18.23;;;;;;;1.46;95.71;100440.10;1758372;80;20926;-78
2022/11/26 06:23:52;;;;;;;23.47;17.87;;;;;;;1.47;95.77;100444.37;1782752;78;20887;-78
2022/11/26 06:26:19;;;;;;;28.00;18.50;;;;;;;1.46;95.78;100436.24;1764113;80;21478;-78
2022/11/26 06:28:46;;;;;;;25.23;17.92;;;;;;;1.36;95.57;100447.36;1768078;80;20962;-78
2022/11/26 06:31:12;;;;;;;25.97;17.87;;;;;;;1.32;95.82;100444.37;1770684;80;21737;-77
2022/11/26 06:33:40;;;;;;;23.65;17.52;;;;;;;1.33;95.53;100446.08;1767932;80;20926;-78
2022/11/26 06:36:07;;;;;;;28.50;18.75;;;;;;;1.34;95.68;100452.92;1769736;80;20919;-77
2022/11/26 06:38:33;;;;;;;28.60;18.83;;;;;;;1.25;95.60;100452.91;1763301;80;21478;-77
2022/11/26 06:41:04;;;;;;;25.83;17.83;;;;;;;1.27;95.79;100452.50;1758058;79;20934;-77
2022/11/26 06:43:32;;;;;;;23.35;16.40;;;;;;;1.23;95.83;100452.05;1768533;79;21106;-77
2022/11/26 06:46:03;;;;;;;26.23;17.12;;;;;;;1.17;96.31;100454.61;1765694;79;28011;-77
2022/11/26 06:48:31;;;;;;;24.05;16.67;;;;;;;1.19;96.13;100459.34;1774817;80;20948;-77
2022/11/26 06:51:07;;;;;;;25.37;17.07;;;;;;;1.10;96.33;100455.03;1773624;79;23809;-78
2022/11/26 06:53:34;;;;;;;27.52;17.75;;;;;;;1.18;96.28;100469.20;1772677;79;20925;-77
2022/11/26 06:56:09;;;;;;;25.00;16.77;;;;;;;1.11;96.47;100469.16;1773825;78;21882;-77
2022/11/26 06:58:36;;;;;;;23.38;16.85;;;;;;;1.20;96.14;100469.61;1774996;80;20938;-77
2022/11/26 07:01:11;;;;;;;26.17;17.33;;;;;;;1.15;96.22;100471.74;1728489;81;21437;-77
2022/11/26 07:03:38;;;;;;;24.85;17.77;;;;;;;1.10;96.42;100475.17;1752286;79;21448;-77
2022/11/26 07:06:05;;;;;;;22.75;15.90;;;;;;;1.16;96.59;100481.20;1769662;78;20863;-77
2022/11/26 07:08:32;;;;;;;26.62;17.15;;;;;;;1.23;96.37;100479.05;1729509;79;21065;-77
2022/11/26 07:11:02;;;;;;;23.50;16.70;;;;;;;1.26;96.06;100485.49;1772109;79;20988;-77
2022/11/26 07:13:29;;;;;;;25.70;17.45;;;;;;;1.26;95.96;100480.35;1770611;78;21996;-79
2022/11/26 07:15:57;;;;;;;26.12;17.05;;;;;;;1.28;96.05;100477.36;1759183;80;20906;-81
2022/11/26 07:18:24;;;;;;;28.17;17.60;;;;;;;1.34;96.05;100486.38;1764077;80;20910;-77
2022/11/26 07:20:52;;;;;;;25.83;17.20;;;;;;;1.38;96.11;100482.97;1775703;78;21372;-77
2022/11/26 07:23:24;;;;;;;23.77;16.12;;;;;;;1.38;95.82;100486.83;1758360;80;21598;-77
2022/11/26 07:25:48;;;;;;;21.65;15.20;;;;;;;1.40;95.85;100491.56;1763951;78;20890;-78
2022/11/26 07:28:15;;;;;;;22.20;15.80;;;;;;;1.44;95.95;100485.55;1788514;78;20969;-77
2022/11/26 07:30:42;;;;;;;24.15;16.27;;;;;;;1.46;95.97;100494.14;1799202;78;20930;-78
2022/11/26 07:33:09;;;;;;;23.77;16.93;;;;;;;1.51;96.12;100492.45;1785107;78;21036;-77
2022/11/26 07:35:37;;;;;;;25.53;16.20;;;;;;;1.56;96.09;100488.14;1781371;80;21419;-77
2022/11/26 07:38:04;;;;;;;22.58;15.60;;;;;;;1.59;96.01;100494.16;1778168;78;20950;-77
2022/11/26 07:40:30;;;;;;;22.80;16.82;;;;;;;1.60;95.88;100495.86;1794480;79;20973;-77
2022/11/26 07:42:59;;;;;;;24.05;16.02;;;;;;;1.62;96.06;100491.59;1789116;79;21471;-78
2022/11/26 07:45:26;;;;;;;23.92;17.40;;;;;;;1.69;96.19;100493.33;1788006;79;21769;-79
2022/11/26 07:47:53;;;;;;;23.87;16.30;;;;;;;1.74;96.06;100492.91;1770064;80;20949;-77
2022/11/26 07:50:19;;;;;;;22.07;15.97;;;;;;;1.75;96.07;100507.05;1738967;81;21028;-76
2022/11/26 07:52:46;;;;;;;21.87;15.40;;;;;;;1.83;96.38;100501.92;1784834;79;21005;-72
2022/11/26 07:55:13;;;;;;;25.68;16.30;;;;;;;1.87;96.21;100512.64;1748834;81;20957;-72
2022/11/26 07:57:40;;;;;;;21.50;15.80;;;;;;;1.86;95.95;100517.38;1791624;79;21100;-73
2022/11/26 08:00:08;;;;;;;20.12;15.30;;;;;;;1.89;96.25;100513.50;1751555;80;21551;-76
2022/11/26 08:02:35;;;;;;;20.20;14.85;;;;;;;1.95;96.37;100513.50;1783547;79;20896;-75
2022/11/26 08:05:05;;;;;;;21.45;15.40;;;;;;;1.95;96.07;100525.09;1760821;81;20898;-75
2022/11/26 08:07:34;;;;;;;24.47;16.57;;;;;;;1.93;95.87;100527.23;1784188;79;21032;-76
2022/11/26 08:10:01;;;;;;;25.45;16.55;;;;;;;1.93;95.85;100524.26;1759126;80;21025;-76
2022/11/26 08:12:28;;;;;;;21.10;16.00;;;;;;;1.93;95.74;100521.68;1751631;80;21507;-76
2022/11/26 08:14:54;;;;;;;20.97;15.93;;;;;;;2.04;96.14;100525.95;1774202;79;21424;-75
2022/11/26 08:17:21;;;;;;;26.05;16.27;;;;;;;2.10;95.99;100525.95;1777627;80;20977;-75
2022/11/26 08:19:48;;;;;;;23.60;16.60;;;;;;;2.15;95.91;100533.26;1786893;79;20985;-75
2022/11/26 08:22:15;;;;;;;23.83;15.80;;;;;;;2.23;96.14;100527.68;1784881;79;21165;-75
2022/11/26 08:24:41;;;;;;;19.00;14.33;;;;;;;2.35;96.26;100532.84;1760415;80;20941;-75
2022/11/26 08:27:08;;;;;;;21.60;15.58;;;;;;;2.45;96.04;100547.42;1782307;79;21086;-75
2022/11/26 08:29:36;;;;;;;23.50;16.00;;;;;;;2.54;95.34;100545.70;1776753;79;21007;-75
2022/11/26 08:32:03;;;;;;;19.15;14.93;;;;;;;2.57;96.13;100545.69;1790205;79;20971;-75
2022/11/26 08:34:30;;;;;;;23.75;15.58;;;;;;;2.67;96.37;100548.26;1778846;79;24233;-75
2022/11/26 08:36:57;;;;;;;19.73;13.95;;;;;;;2.77;96.31;100556.82;1787793;79;21594;-75
2022/11/26 08:39:23;;;;;;;21.75;16.02;;;;;;;2.83;96.28;100555.95;1729341;81;20908;-74
2022/11/26 08:41:50;;;;;;;24.35;16.57;;;;;;;2.89;96.29;100556.81;1769946;79;20958;-75
2022/11/26 08:44:17;;;;;;;22.75;16.23;;;;;;;2.93;95.72;100563.25;1773210;79;20934;-75
2022/11/26 08:46:44;;;;;;;22.27;15.40;;;;;;;2.98;95.98;100566.68;1749746;80;21899;-76
2022/11/26 08:49:13;;;;;;;23.05;16.02;;;;;;;3.04;95.91;100567.95;1760184;80;20945;-76
2022/11/26 08:51:40;;;;;;;22.58;16.00;;;;;;;3.12;96.05;100563.63;1766097;81;20914;-76
2022/11/26 08:54:07;;;;;;;23.73;16.02;;;;;;;3.17;95.72;100567.05;1792093;79;20910;-76
2022/11/26 08:56:33;;;;;;;20.47;15.37;;;;;;;3.22;95.73;100564.44;1752000;80;20969;-76
2022/11/26 08:59:01;;;;;;;25.15;15.95;;;;;;;3.31;95.95;100563.98;1783345;79;21894;-76
2022/11/26 09:01:31;;;;;;;;;;;;;;;3.42;95.99;100568.22;1742411;80;20961;-76
2022/11/26 09:04:00;;;;;;;18.30;14.25;;;;;;;3.47;95.49;100567.77;1769756;79;20140;-76
2022/11/26 09:06:30;;;;;;;18.35;13.20;;;;;;;3.45;95.31;100568.23;1780807;79;21106;-76
2022/11/26 09:09:16;;;;;;;20.72;13.50;;;;;;;3.43;95.32;100572.09;1760723;81;20966;-76
2022/11/26 09:11:59;;;;;;;19.43;14.33;;;;;;;3.43;95.33;100573.83;1784023;79;21827;-76
2022/11/26 09:14:33;;;;;;;22.40;17.37;;;;;;;3.31;95.26;100573.02;1770433;80;20878;-76
2022/11/26 09:17:00;;;;;;;19.70;14.45;;;;;;;3.32;95.02;100572.14;1772123;80;21448;-76
2022/11/26 09:19:29;;;;;;;20.47;15.47;;;;;;;3.20;95.07;100579.94;1765723;80;20986;-76
2022/11/26 09:21:58;;;;;;;17.57;13.98;;;;;;;3.15;95.14;100580.38;1753568;80;21535;-76
2022/11/26 09:24:29;;;;;;;19.45;13.70;;;;;;;3.07;94.73;100582.13;1760178;80;21102;-76
2022/11/26 09:26:57;;;;;;;16.50;12.70;;;;;;;2.98;95.26;100583.45;1752471;79;20985;-76
2022/11/26 09:29:25;;;;;;;18.23;13.43;;;;;;;2.83;95.71;100580.05;1760919;81;20887;-76
2022/11/26 09:31:52;;;;;;;17.48;13.00;;;;;;;2.81;95.83;100581.76;1784147;79;21578;-75
2022/11/26 09:34:19;;;;;;;18.20;13.15;;;;;;;2.71;95.87;100590.36;1789913;79;26378;-75
2022/11/26 09:36:46;;;;;;;20.40;15.20;;;;;;;2.76;96.13;100591.22;1770142;79;21038;-75
2022/11/26 09:39:13;;;;;;;19.57;14.18;;;;;;;2.78;96.28;100589.50;1777387;79;21566;-75
2022/11/26 09:41:55;;;;;;;15.80;12.88;;;;;;;2.81;96.22;100592.08;1756692;79;20891;-78
2022/11/26 09:44:30;;;;;;;19.05;14.10;;;;;;;2.78;95.66;100597.24;1792985;79;21962;-77
2022/11/26 09:47:04;;;;;;;16.02;12.65;;;;;;;2.78;95.70;100598.97;1786052;79;21619;-76
2022/11/26 09:49:36;;;;;;;18.87;14.23;;;;;;;2.74;95.81;100595.95;1788171;79;21031;-77
2022/11/26 09:52:07;;;;;;;19.23;13.65;;;;;;;2.70;95.71;100598.97;1787538;79;20846;-76
2022/11/26 09:54:34;;;;;;;20.50;14.50;;;;;;;2.74;96.04;100601.11;1770962;79;20921;-77
2022/11/26 09:57:23;;;;;;;19.67;13.78;;;;;;;2.81;96.22;100604.97;1777836;78;20926;-77
2022/11/26 09:59:53;;;;;;;19.67;14.43;;;;;;;2.90;95.99;100598.50;1782379;78;20871;-75
2022/11/26 10:02:20;;;;;;;20.25;14.68;;;;;;;2.91;95.31;100593.79;1769600;79;21065;-74
2022/11/26 10:04:47;;;;;;;22.07;15.68;;;;;;;2.91;95.23;100601.53;1771434;79;21010;-73
2022/11/26 10:07:45;;;;;;;21.20;15.95;;;;;;;2.98;95.33;100601.51;1789904;78;21491;-73
2022/11/26 10:10:26;;;;;;;24.77;17.05;;;;;;;3.00;95.21;100602.38;1800341;78;21095;-74
2022/11/26 10:13:19;;;;;;;25.32;17.15;;;;;;;3.01;95.56;100598.92;1767438;79;20955;-73
2022/11/26 10:16:03;;;;;;;24.92;17.65;;;;;;;3.03;95.58;100594.62;1781467;78;21015;-73
2022/11/26 10:18:43;;;;;;;26.02;15.95;;;;;;;3.08;95.62;100596.73;1784746;78;20903;-74
2022/11/26 10:21:23;;;;;;;19.75;14.83;;;;;;;3.15;95.84;100597.16;1775061;79;21394;-74
2022/11/26 10:24:21;;;;;;;19.65;14.07;;;;;;;3.30;96.12;100594.52;1793208;78;20930;-73
2022/11/26 10:26:52;;;;;;;19.50;14.75;;;;;;;3.33;95.53;100607.44;1783984;78;20985;-74
2022/11/26 10:29:39;;;;;;;19.07;15.53;;;;;;;3.40;95.36;100603.53;1770958;79;22211;-73
2022/11/26 10:32:14;;;;;;;25.65;16.37;;;;;;;3.46;95.22;100607.38;1798019;79;21497;-74
2022/11/26 10:34:54;;;;;;;29.42;19.50;;;;;;;3.42;94.77;100605.66;1754638;79;20953;-74
2022/11/26 10:37:25;;;;;;;29.45;18.67;;;;;;;3.50;95.44;100612.53;1771585;79;20894;-74
2022/11/26 10:40:24;;;;;;;24.80;18.30;;;;;;;3.72;95.60;100614.56;1774006;80;20981;-74
2022/11/26 10:43:09;;;;;;;24.60;16.90;;;;;;;3.80;95.96;100619.25;1776985;79;21495;-76
2022/11/26 10:45:48;;;;;;;23.98;15.45;;;;;;;3.87;95.05;100621.39;1745472;81;21539;-79
2022/11/26 10:48:31;;;;;;;23.18;16.82;;;;;;;3.77;95.02;100616.69;1775338;79;20961;-76
2022/11/26 10:51:18;;;;;;;20.85;15.80;;;;;;;3.68;94.97;100611.58;1780718;79;21407;-76
2022/11/26 10:53:57;;;;;;;27.20;17.65;;;;;;;3.58;94.80;100613.77;1777581;79;20946;-76
2022/11/26 10:56:32;;;;;;;32.23;19.48;;;;;;;3.51;94.66;100618.55;1773728;79;21730;-76
2022/11/26 10:59:03;;;;;;;26.07;18.50;;;;;;;3.54;94.96;100610.78;1779930;79;20902;-76
2022/11/26 11:01:38;;;;;;;28.73;19.27;;;;;;;3.53;95.19;100611.66;1772392;79;20914;-76
2022/11/26 11:04:24;;;;;;;30.35;19.30;;;;;;;3.60;95.44;100610.75;1775237;79;21018;-77
2022/11/26 11:06:51;;;;;;;20.85;15.55;;;;;;;3.66;95.52;100613.30;1778831;79;20965;-77
2022/11/26 11:09:36;;;;;;;19.10;15.47;;;;;;;3.71;95.49;100620.60;1775481;79;21531;-77
2022/11/26 11:12:19;;;;;;;20.10;14.23;;;;;;;3.77;95.15;100626.17;1772340;79;20945;-76
2022/11/26 11:14:46;;;;;;;21.40;14.47;;;;;;;3.82;94.69;100632.17;1778879;79;21021;-76
2022/11/26 11:17:36;;;;;;;17.17;13.05;;;;;;;3.73;95.05;100629.21;1796199;78;20950;-77
2022/11/26 11:20:17;;;;;;;19.30;14.10;;;;;;;3.80;95.32;100637.34;1793562;78;21478;-76
2022/11/26 11:22:46;;;;;;;20.52;13.72;;;;;;;3.91;95.50;100639.02;1713389;83;21066;-76
2022/11/26 11:25:25;;;;;;;19.35;13.35;;;;;;;3.95;95.27;100631.66;1722084;82;20926;-76
2022/11/26 11:27:56;;;;;;;16.52;12.05;;;;;;;4.01;94.83;100638.11;1689443;84;20955;-76
2022/11/26 11:30:25;;;;;;;18.57;12.65;;;;;;;4.01;94.74;100625.19;1697765;82;21593;-76
2022/11/26 11:32:56;;;;;;;15.93;12.18;;;;;;;3.99;94.82;100630.80;1641041;85;21555;-76